sensor_id;sensor_type;location;lat;lon;timestamp;pressure;altitude;pressure_sealevel;temperature;humidity
39887;BME280;25559;44.738;20.980;2022-09-30T00:01:25;99918.81;;;17.42;nan
39887;BME280;25559;44.738;20.980;2022-09-30T00:03:55;99916.38;;;17.38;nan
39887;BME280;25559;44.738;20.980;2022-09-30T00:06:22;99909.19;;;17.42;nan
39887;BME280;25559;44.738;20.980;2022-09-30T00:08:48;99917.88;;;17.43;nan
39887;BME280;25559;44.738;20.980;2022-09-30T00:11:25;99917.78;;;17.44;nan
39887;BME280;25559;44.738;20.980;2022-09-30T00:13:52;99917.97;;;17.41;nan
39887;BME280;25559;44.738;20.980;2022-09-30T00:16:21;99914.75;;;17.36;nan
39887;BME280;25559;44.738;20.980;2022-09-30T00:18:48;99924.81;;;17.44;nan
39887;BME280;25559;44.738;20.980;2022-09-30T00:21:15;99927.94;;;17.50;nan
39887;BME280;25559;44.738;20.980;2022-09-30T00:23:42;99923.47;;;17.52;nan
39887;BME280;25559;44.738;20.980;2022-09-30T00:26:14;99924.16;;;17.56;nan
39887;BME280;25559;44.738;20.980;2022-09-30T00:28:41;99930.91;;;17.60;nan
39887;BME280;25559;44.738;20.980;2022-09-30T00:31:11;99933.44;;;17.62;nan
39887;BME280;25559;44.738;20.980;2022-09-30T00:33:37;99933.44;;;17.62;nan
39887;BME280;25559;44.738;20.980;2022-09-30T00:36:03;99937.75;;;17.63;nan
39887;BME280;25559;44.738;20.980;2022-09-30T00:38:28;99929.03;;;17.62;nan
39887;BME280;25559;44.738;20.980;2022-09-30T00:40:54;99931.59;;;17.64;nan
39887;BME280;25559;44.738;20.980;2022-09-30T00:43:42;99922.19;;;17.59;nan
39887;BME280;25559;44.738;20.980;2022-09-30T00:46:39;99926.34;;;17.64;nan
39887;BME280;25559;44.738;20.980;2022-09-30T00:49:15;99922.09;;;17.61;nan
39887;BME280;25559;44.738;20.980;2022-09-30T00:51:54;99924.72;;;17.61;nan
39887;BME280;25559;44.738;20.980;2022-09-30T00:54:25;99924.56;;;17.64;nan
39887;BME280;25559;44.738;20.980;2022-09-30T00:56:55;99934.13;;;17.65;nan
39887;BME280;25559;44.738;20.980;2022-09-30T00:59:28;99943.84;;;17.63;nan
39887;BME280;25559;44.738;20.980;2022-09-30T01:01:56;99938.78;;;17.60;nan
39887;BME280;25559;44.738;20.980;2022-09-30T01:04:23;99939.59;;;17.61;nan
39887;BME280;25559;44.738;20.980;2022-09-30T01:06:51;99917.66;;;17.63;nan
39887;BME280;25559;44.738;20.980;2022-09-30T01:09:17;99918.56;;;17.62;nan
39887;BME280;25559;44.738;20.980;2022-09-30T01:11:44;99909.34;;;17.55;nan
39887;BME280;25559;44.738;20.980;2022-09-30T01:14:11;99915.13;;;17.62;nan
39887;BME280;25559;44.738;20.980;2022-09-30T01:22:33;99940.13;;;17.67;nan
39887;BME280;25559;44.738;20.980;2022-09-30T01:36:19;99910.13;;;17.73;nan
39887;BME280;25559;44.738;20.980;2022-09-30T01:39:24;99915.09;;;17.77;nan
39887;BME280;25559;44.738;20.980;2022-09-30T01:47:26;99935.88;;;17.81;nan
39887;BME280;25559;44.738;20.980;2022-09-30T01:50:21;99948.72;;;17.85;nan
39887;BME280;25559;44.738;20.980;2022-09-30T01:58:14;99931.03;;;17.90;nan
39887;BME280;25559;44.738;20.980;2022-09-30T02:00:46;99939.63;;;17.92;nan
39887;BME280;25559;44.738;20.980;2022-09-30T02:03:28;99918.91;;;17.88;nan
39887;BME280;25559;44.738;20.980;2022-09-30T02:06:10;99916.13;;;17.91;nan
39887;BME280;25559;44.738;20.980;2022-09-30T02:08:45;99917.84;;;17.92;nan
39887;BME280;25559;44.738;20.980;2022-09-30T02:11:22;99923.81;;;17.94;nan
39887;BME280;25559;44.738;20.980;2022-09-30T02:14:05;99939.38;;;17.97;nan
39887;BME280;25559;44.738;20.980;2022-09-30T02:16:37;99952.22;;;18.02;nan
39887;BME280;25559;44.738;20.980;2022-09-30T02:19:23;99946.25;;;18.00;nan
39887;BME280;25559;44.738;20.980;2022-09-30T02:21:55;99943.78;;;17.97;nan
39887;BME280;25559;44.738;20.980;2022-09-30T02:24:24;99952.56;;;17.96;nan
39887;BME280;25559;44.738;20.980;2022-09-30T02:26:54;99950.66;;;17.99;nan
39887;BME280;25559;44.738;20.980;2022-09-30T02:29:34;99964.50;;;18.01;nan
39887;BME280;25559;44.738;20.980;2022-09-30T02:32:06;99960.09;;;18.02;nan
39887;BME280;25559;44.738;20.980;2022-09-30T02:34:46;99956.38;;;18.06;nan
39887;BME280;25559;44.738;20.980;2022-09-30T02:37:23;99958.16;;;18.05;nan
39887;BME280;25559;44.738;20.980;2022-09-30T02:42:30;99952.84;;;18.07;nan
39887;BME280;25559;44.738;20.980;2022-09-30T02:45:09;99945.81;;;18.07;nan
39887;BME280;25559;44.738;20.980;2022-09-30T02:53:39;99920.59;;;18.05;nan
39887;BME280;25559;44.738;20.980;2022-09-30T02:58:41;99932.03;;;18.04;nan
39887;BME280;25559;44.738;20.980;2022-09-30T03:01:09;99931.00;;;18.06;nan
39887;BME280;25559;44.738;20.980;2022-09-30T03:03:44;99922.47;;;18.03;nan
39887;BME280;25559;44.738;20.980;2022-09-30T03:06:11;99918.75;;;18.07;nan
39887;BME280;25559;44.738;20.980;2022-09-30T03:08:37;99911.06;;;18.04;nan
39887;BME280;25559;44.738;20.980;2022-09-30T03:11:03;99916.47;;;18.01;nan
39887;BME280;25559;44.738;20.980;2022-09-30T03:16:32;99937.44;;;18.01;nan
39887;BME280;25559;44.738;20.980;2022-09-30T03:19:25;99947.25;;;17.97;nan
39887;BME280;25559;44.738;20.980;2022-09-30T03:27:37;99942.44;;;17.89;nan
39887;BME280;25559;44.738;20.980;2022-09-30T03:30:13;99950.53;;;17.85;nan
39887;BME280;25559;44.738;20.980;2022-09-30T03:35:37;99947.31;;;17.80;nan
39887;BME280;25559;44.738;20.980;2022-09-30T03:38:38;99962.97;;;17.81;nan
39887;BME280;25559;44.738;20.980;2022-09-30T03:41:16;99970.13;;;17.77;nan
39887;BME280;25559;44.738;20.980;2022-09-30T03:46:21;99980.34;;;17.82;nan
39887;BME280;25559;44.738;20.980;2022-09-30T03:48:51;99979.34;;;17.85;nan
39887;BME280;25559;44.738;20.980;2022-09-30T03:51:19;99982.81;;;17.85;nan
39887;BME280;25559;44.738;20.980;2022-09-30T03:53:45;99984.69;;;17.83;nan
39887;BME280;25559;44.738;20.980;2022-09-30T03:56:12;99984.59;;;17.85;nan
39887;BME280;25559;44.738;20.980;2022-09-30T03:58:41;99977.66;;;17.84;nan
39887;BME280;25559;44.738;20.980;2022-09-30T04:01:16;99993.38;;;17.84;nan
39887;BME280;25559;44.738;20.980;2022-09-30T04:03:49;99999.47;;;17.84;nan
39887;BME280;25559;44.738;20.980;2022-09-30T04:06:20;100001.16;;;17.85;nan
39887;BME280;25559;44.738;20.980;2022-09-30T04:08:46;100005.72;;;17.82;nan
39887;BME280;25559;44.738;20.980;2022-09-30T04:11:13;100016.97;;;17.84;nan
39887;BME280;25559;44.738;20.980;2022-09-30T04:13:38;100016.97;;;17.84;nan
39887;BME280;25559;44.738;20.980;2022-09-30T04:16:05;100012.75;;;17.81;nan
39887;BME280;25559;44.738;20.980;2022-09-30T04:18:35;100015.63;;;17.76;nan
39887;BME280;25559;44.738;20.980;2022-09-30T04:21:05;100005.81;;;17.80;nan
39887;BME280;25559;44.738;20.980;2022-09-30T04:23:36;100003.28;;;17.79;nan
39887;BME280;25559;44.738;20.980;2022-09-30T04:26:03;100005.16;;;17.76;nan
39887;BME280;25559;44.738;20.980;2022-09-30T04:28:30;100007.69;;;17.78;nan
39887;BME280;25559;44.738;20.980;2022-09-30T04:31:00;100012.22;;;17.74;nan
39887;BME280;25559;44.738;20.980;2022-09-30T04:33:26;100025.84;;;17.81;nan
39887;BME280;25559;44.738;20.980;2022-09-30T04:35:53;100027.69;;;17.79;nan
39887;BME280;25559;44.738;20.980;2022-09-30T04:38:20;100021.53;;;17.80;nan
39887;BME280;25559;44.738;20.980;2022-09-30T04:40:46;100025.00;;;17.81;nan
39887;BME280;25559;44.738;20.980;2022-09-30T04:43:15;100016.47;;;17.77;nan
39887;BME280;25559;44.738;20.980;2022-09-30T04:45:42;100028.41;;;17.83;nan
39887;BME280;25559;44.738;20.980;2022-09-30T04:48:09;100030.16;;;17.82;nan
39887;BME280;25559;44.738;20.980;2022-09-30T04:50:35;100019.91;;;17.77;nan
39887;BME280;25559;44.738;20.980;2022-09-30T04:53:00;100022.44;;;17.79;nan
39887;BME280;25559;44.738;20.980;2022-09-30T04:55:28;100019.84;;;17.79;nan
39887;BME280;25559;44.738;20.980;2022-09-30T04:57:53;100028.47;;;17.81;nan
39887;BME280;25559;44.738;20.980;2022-09-30T05:00:19;100033.81;;;17.80;nan
39887;BME280;25559;44.738;20.980;2022-09-30T05:02:45;100042.16;;;17.86;nan
39887;BME280;25559;44.738;20.980;2022-09-30T05:05:11;100056.94;;;17.89;nan
39887;BME280;25559;44.738;20.980;2022-09-30T05:07:37;100056.97;;;17.87;nan
39887;BME280;25559;44.738;20.980;2022-09-30T05:10:03;100074.38;;;17.88;nan
39887;BME280;25559;44.738;20.980;2022-09-30T05:12:29;100088.13;;;17.93;nan
39887;BME280;25559;44.738;20.980;2022-09-30T05:14:56;100095.28;;;17.90;nan
39887;BME280;25559;44.738;20.980;2022-09-30T05:17:22;100106.72;;;17.89;nan
39887;BME280;25559;44.738;20.980;2022-09-30T05:19:47;100107.78;;;17.85;nan
39887;BME280;25559;44.738;20.980;2022-09-30T05:22:14;100114.19;;;17.79;nan
39887;BME280;25559;44.738;20.980;2022-09-30T05:24:39;100125.19;;;17.86;nan
39887;BME280;25559;44.738;20.980;2022-09-30T05:27:05;100125.53;;;17.80;nan
39887;BME280;25559;44.738;20.980;2022-09-30T05:29:31;100120.97;;;17.83;nan
39887;BME280;25559;44.738;20.980;2022-09-30T05:31:57;100113.66;;;17.72;nan
39887;BME280;25559;44.738;20.980;2022-09-30T05:34:23;100100.81;;;17.68;nan
39887;BME280;25559;44.738;20.980;2022-09-30T05:36:48;100094.91;;;17.80;nan
39887;BME280;25559;44.738;20.980;2022-09-30T05:39:14;100092.03;;;17.85;nan
39887;BME280;25559;44.738;20.980;2022-09-30T05:41:40;100082.56;;;17.82;nan
39887;BME280;25559;44.738;20.980;2022-09-30T05:44:06;100093.75;;;17.86;nan
39887;BME280;25559;44.738;20.980;2022-09-30T05:46:33;100083.34;;;17.84;nan
39887;BME280;25559;44.738;20.980;2022-09-30T05:48:59;100092.81;;;17.87;nan
39887;BME280;25559;44.738;20.980;2022-09-30T05:51:25;100100.53;;;17.90;nan
39887;BME280;25559;44.738;20.980;2022-09-30T05:53:51;100103.78;;;17.95;nan
39887;BME280;25559;44.738;20.980;2022-09-30T05:56:17;100110.06;;;18.08;nan
39887;BME280;25559;44.738;20.980;2022-09-30T05:58:42;100102.63;;;18.33;nan
39887;BME280;25559;44.738;20.980;2022-09-30T06:01:13;100109.13;;;18.57;nan
39887;BME280;25559;44.738;20.980;2022-09-30T06:03:39;100118.66;;;18.90;nan
39887;BME280;25559;44.738;20.980;2022-09-30T06:06:05;100110.47;;;18.96;nan
39887;BME280;25559;44.738;20.980;2022-09-30T06:08:31;100109.59;;;18.96;nan
39887;BME280;25559;44.738;20.980;2022-09-30T06:10:57;100122.19;;;19.05;nan
39887;BME280;25559;44.738;20.980;2022-09-30T06:13:25;100109.25;;;19.02;nan
39887;BME280;25559;44.738;20.980;2022-09-30T06:15:55;100123.34;;;19.15;nan
39887;BME280;25559;44.738;20.980;2022-09-30T06:18:21;100134.50;;;19.35;nan
39887;BME280;25559;44.738;20.980;2022-09-30T06:20:46;100128.13;;;19.53;nan
39887;BME280;25559;44.738;20.980;2022-09-30T06:23:12;100136.06;;;19.68;nan
39887;BME280;25559;44.738;20.980;2022-09-30T06:25:38;100127.38;;;19.66;nan
39887;BME280;25559;44.738;20.980;2022-09-30T06:28:03;100127.75;;;19.60;nan
39887;BME280;25559;44.738;20.980;2022-09-30T06:30:29;100138.78;;;19.66;nan
39887;BME280;25559;44.738;20.980;2022-09-30T06:32:57;100131.25;;;19.75;nan
39887;BME280;25559;44.738;20.980;2022-09-30T06:35:23;100127.31;;;19.67;nan
39887;BME280;25559;44.738;20.980;2022-09-30T06:37:50;100132.91;;;19.77;nan
39887;BME280;25559;44.738;20.980;2022-09-30T06:40:16;100119.75;;;20.06;nan
39887;BME280;25559;44.738;20.980;2022-09-30T06:42:42;100130.53;;;20.30;nan
39887;BME280;25559;44.738;20.980;2022-09-30T06:45:08;100148.16;;;20.42;nan
39887;BME280;25559;44.738;20.980;2022-09-30T06:47:35;100148.25;;;20.41;nan
39887;BME280;25559;44.738;20.980;2022-09-30T06:50:00;100150.59;;;20.46;nan
39887;BME280;25559;44.738;20.980;2022-09-30T06:52:27;100143.75;;;20.43;nan
39887;BME280;25559;44.738;20.980;2022-09-30T06:54:53;100144.56;;;20.44;nan
39887;BME280;25559;44.738;20.980;2022-09-30T06:57:23;100148.41;;;20.52;nan
39887;BME280;25559;44.738;20.980;2022-09-30T06:59:51;100138.25;;;20.61;nan
39887;BME280;25559;44.738;20.980;2022-09-30T07:02:17;100143.06;;;20.54;nan
39887;BME280;25559;44.738;20.980;2022-09-30T07:04:42;100147.56;;;20.66;nan
39887;BME280;25559;44.738;20.980;2022-09-30T07:07:08;100149.16;;;20.96;nan
39887;BME280;25559;44.738;20.980;2022-09-30T07:09:34;100163.44;;;21.19;nan
39887;BME280;25559;44.738;20.980;2022-09-30T07:12:00;100159.16;;;21.31;nan
39887;BME280;25559;44.738;20.980;2022-09-30T07:14:25;100174.63;;;21.50;nan
39887;BME280;25559;44.738;20.980;2022-09-30T07:16:51;100166.41;;;21.68;nan
39887;BME280;25559;44.738;20.980;2022-09-30T07:19:17;100167.16;;;21.82;nan
39887;BME280;25559;44.738;20.980;2022-09-30T07:21:48;100179.28;;;21.98;nan
39887;BME280;25559;44.738;20.980;2022-09-30T07:24:15;100187.41;;;22.08;nan
39887;BME280;25559;44.738;20.980;2022-09-30T07:26:40;100190.84;;;22.21;nan
39887;BME280;25559;44.738;20.980;2022-09-30T07:29:06;100188.25;;;22.34;nan
39887;BME280;25559;44.738;20.980;2022-09-30T07:31:31;100197.84;;;22.22;nan
39887;BME280;25559;44.738;20.980;2022-09-30T07:33:58;100198.69;;;22.10;nan
39887;BME280;25559;44.738;20.980;2022-09-30T07:36:24;100211.13;;;22.21;nan
39887;BME280;25559;44.738;20.980;2022-09-30T07:38:55;100213.38;;;22.40;nan
39887;BME280;25559;44.738;20.980;2022-09-30T07:41:25;100213.78;;;22.46;nan
39887;BME280;25559;44.738;20.980;2022-09-30T07:43:53;100202.59;;;22.43;nan
39887;BME280;25559;44.738;20.980;2022-09-30T07:46:27;100208.66;;;22.56;nan
39887;BME280;25559;44.738;20.980;2022-09-30T07:48:55;100207.44;;;22.86;nan
39887;BME280;25559;44.738;20.980;2022-09-30T07:51:32;100217.81;;;23.13;nan
39887;BME280;25559;44.738;20.980;2022-09-30T07:54:01;100216.72;;;23.40;nan
39887;BME280;25559;44.738;20.980;2022-09-30T07:56:30;100223.41;;;23.68;nan
39887;BME280;25559;44.738;20.980;2022-09-30T07:58:58;100216.88;;;24.08;nan
39887;BME280;25559;44.738;20.980;2022-09-30T08:01:28;100236.88;;;24.46;nan
39887;BME280;25559;44.738;20.980;2022-09-30T08:03:58;100210.75;;;24.64;nan
39887;BME280;25559;44.738;20.980;2022-09-30T08:06:25;100250.28;;;25.11;nan
39887;BME280;25559;44.738;20.980;2022-09-30T08:08:53;100230.78;;;25.44;nan
39887;BME280;25559;44.738;20.980;2022-09-30T08:11:19;100220.69;;;25.80;nan
39887;BME280;25559;44.738;20.980;2022-09-30T08:13:52;100237.22;;;26.36;nan
39887;BME280;25559;44.738;20.980;2022-09-30T08:16:19;100237.94;;;26.88;nan
39887;BME280;25559;44.738;20.980;2022-09-30T08:18:44;100229.03;;;27.48;nan
39887;BME280;25559;44.738;20.980;2022-09-30T08:21:10;100242.09;;;28.18;nan
39887;BME280;25559;44.738;20.980;2022-09-30T08:23:36;100248.94;;;28.86;nan
39887;BME280;25559;44.738;20.980;2022-09-30T08:26:02;100257.19;;;29.11;nan
39887;BME280;25559;44.738;20.980;2022-09-30T08:28:28;100262.72;;;28.81;nan
39887;BME280;25559;44.738;20.980;2022-09-30T08:31:16;100270.38;;;29.12;nan
39887;BME280;25559;44.738;20.980;2022-09-30T08:33:42;100254.00;;;29.79;nan
39887;BME280;25559;44.738;20.980;2022-09-30T08:36:19;100259.31;;;30.32;nan
39887;BME280;25559;44.738;20.980;2022-09-30T08:38:45;100272.06;;;30.72;nan
39887;BME280;25559;44.738;20.980;2022-09-30T08:52:30;100294.31;;;31.48;nan
39887;BME280;25559;44.738;20.980;2022-09-30T08:54:58;100278.75;;;31.52;nan
39887;BME280;25559;44.738;20.980;2022-09-30T08:57:35;100276.97;;;30.93;nan
39887;BME280;25559;44.738;20.980;2022-09-30T09:00:05;100287.88;;;30.57;nan
39887;BME280;25559;44.738;20.980;2022-09-30T09:05:16;100290.56;;;30.57;nan
39887;BME280;25559;44.738;20.980;2022-09-30T09:21:41;100292.69;;;29.21;nan
39887;BME280;25559;44.738;20.980;2022-09-30T09:24:14;100287.47;;;29.47;nan
39887;BME280;25559;44.738;20.980;2022-09-30T09:26:42;100294.28;;;29.86;nan
39887;BME280;25559;44.738;20.980;2022-09-30T09:29:21;100297.69;;;30.48;nan
39887;BME280;25559;44.738;20.980;2022-09-30T09:31:50;100315.84;;;31.14;nan
39887;BME280;25559;44.738;20.980;2022-09-30T09:34:15;100315.94;;;31.63;nan
39887;BME280;25559;44.738;20.980;2022-09-30T09:47:10;100316.44;;;32.64;nan
39887;BME280;25559;44.738;20.980;2022-09-30T09:49:45;100315.16;;;33.00;nan
39887;BME280;25559;44.738;20.980;2022-09-30T09:52:18;100316.63;;;33.34;nan
39887;BME280;25559;44.738;20.980;2022-09-30T09:54:52;100318.91;;;33.68;nan
39887;BME280;25559;44.738;20.980;2022-09-30T09:57:23;100339.38;;;34.07;nan
39887;BME280;25559;44.738;20.980;2022-09-30T10:05:28;100323.41;;;34.29;nan
39887;BME280;25559;44.738;20.980;2022-09-30T10:08:22;100342.34;;;34.35;nan
39887;BME280;25559;44.738;20.980;2022-09-30T10:10:50;100340.75;;;34.41;nan
39887;BME280;25559;44.738;20.980;2022-09-30T10:13:30;100348.34;;;34.23;nan
39887;BME280;25559;44.738;20.980;2022-09-30T10:15:58;100342.63;;;34.03;nan
39887;BME280;25559;44.738;20.980;2022-09-30T10:18:30;100344.75;;;33.92;nan
39887;BME280;25559;44.738;20.980;2022-09-30T10:23:39;100341.06;;;33.47;nan
39887;BME280;25559;44.738;20.980;2022-09-30T10:29:08;100351.31;;;33.12;nan
39887;BME280;25559;44.738;20.980;2022-09-30T10:31:40;100344.84;;;32.98;nan
39887;BME280;25559;44.738;20.980;2022-09-30T10:34:15;100357.88;;;32.70;nan
39887;BME280;25559;44.738;20.980;2022-09-30T10:36:46;100364.00;;;32.39;nan
39887;BME280;25559;44.738;20.980;2022-09-30T10:41:51;100380.09;;;31.98;nan
39887;BME280;25559;44.738;20.980;2022-09-30T10:44:25;100364.81;;;31.90;nan
39887;BME280;25559;44.738;20.980;2022-09-30T10:46:58;100365.84;;;31.89;nan
39887;BME280;25559;44.738;20.980;2022-09-30T10:51:51;100375.22;;;31.60;nan
39887;BME280;25559;44.738;20.980;2022-09-30T10:54:52;100365.81;;;31.56;nan
39887;BME280;25559;44.738;20.980;2022-09-30T10:57:32;100366.66;;;31.57;nan
39887;BME280;25559;44.738;20.980;2022-09-30T11:00:05;100366.84;;;31.71;nan
39887;BME280;25559;44.738;20.980;2022-09-30T11:05:16;100358.81;;;31.96;nan
39887;BME280;25559;44.738;20.980;2022-09-30T11:18:46;100361.44;;;29.91;nan
39887;BME280;25559;44.738;20.980;2022-09-30T11:21:25;100363.50;;;29.61;nan
39887;BME280;25559;44.738;20.980;2022-09-30T11:24:00;100353.31;;;29.29;nan
39887;BME280;25559;44.738;20.980;2022-09-30T11:26:44;100354.94;;;29.12;nan
39887;BME280;25559;44.738;20.980;2022-09-30T11:30:18;100363.03;;;28.92;nan
39887;BME280;25559;44.738;20.980;2022-09-30T11:57:08;100373.47;;;27.89;nan
39887;BME280;25559;44.738;20.980;2022-09-30T12:00:08;100371.81;;;27.88;nan
39887;BME280;25559;44.738;20.980;2022-09-30T12:02:41;100376.13;;;27.89;nan
39887;BME280;25559;44.738;20.980;2022-09-30T12:05:25;100382.31;;;27.90;nan
39887;BME280;25559;44.738;20.980;2022-09-30T12:10:23;100362.72;;;27.91;nan
39887;BME280;25559;44.738;20.980;2022-09-30T12:13:21;100365.22;;;27.92;nan
39887;BME280;25559;44.738;20.980;2022-09-30T12:15:51;100353.59;;;27.83;nan
39887;BME280;25559;44.738;20.980;2022-09-30T12:18:24;100363.81;;;27.88;nan
39887;BME280;25559;44.738;20.980;2022-09-30T12:20:55;100363.84;;;27.98;nan
39887;BME280;25559;44.738;20.980;2022-09-30T12:23:32;100370.84;;;27.99;nan
39887;BME280;25559;44.738;20.980;2022-09-30T12:26:02;100380.38;;;28.02;nan
39887;BME280;25559;44.738;20.980;2022-09-30T12:34:28;100380.38;;;28.02;nan
39887;BME280;25559;44.738;20.980;2022-09-30T12:47:58;100375.59;;;27.76;nan
39887;BME280;25559;44.738;20.980;2022-09-30T12:50:31;100375.88;;;27.73;nan
39887;BME280;25559;44.738;20.980;2022-09-30T12:53:10;100372.78;;;27.68;nan
39887;BME280;25559;44.738;20.980;2022-09-30T12:55:40;100375.84;;;27.53;nan
39887;BME280;25559;44.738;20.980;2022-09-30T12:58:18;100369.66;;;27.43;nan
39887;BME280;25559;44.738;20.980;2022-09-30T13:00:59;100383.25;;;27.40;nan
39887;BME280;25559;44.738;20.980;2022-09-30T13:06:07;100406.56;;;27.26;nan
39887;BME280;25559;44.738;20.980;2022-09-30T13:14:13;100385.47;;;26.94;nan
39887;BME280;25559;44.738;20.980;2022-09-30T13:19:47;100389.38;;;26.90;nan
39887;BME280;25559;44.738;20.980;2022-09-30T13:27:40;100397.75;;;26.85;nan
39887;BME280;25559;44.738;20.980;2022-09-30T13:32:38;100396.50;;;26.89;nan
39887;BME280;25559;44.738;20.980;2022-09-30T13:35:29;100402.41;;;26.93;nan
39887;BME280;25559;44.738;20.980;2022-09-30T13:38:35;100388.84;;;26.96;nan
39887;BME280;25559;44.738;20.980;2022-09-30T13:45:55;100365.00;;;26.85;nan
39887;BME280;25559;44.738;20.980;2022-09-30T13:48:27;100380.84;;;26.86;nan
39887;BME280;25559;44.738;20.980;2022-09-30T13:55:48;100371.84;;;26.87;nan
39887;BME280;25559;44.738;20.980;2022-09-30T14:03:40;100382.34;;;26.89;nan
39887;BME280;25559;44.738;20.980;2022-09-30T14:06:20;100389.63;;;26.87;nan
39887;BME280;25559;44.738;20.980;2022-09-30T14:15:50;100403.03;;;26.75;nan
39887;BME280;25559;44.738;20.980;2022-09-30T14:23:23;100417.16;;;26.76;nan
39887;BME280;25559;44.738;20.980;2022-09-30T14:29:03;100413.66;;;26.75;nan
39887;BME280;25559;44.738;20.980;2022-09-30T14:36:24;100414.75;;;26.73;nan
39887;BME280;25559;44.738;20.980;2022-09-30T14:38:52;100416.72;;;26.71;nan
39887;BME280;25559;44.738;20.980;2022-09-30T14:41:21;100406.34;;;26.68;nan
39887;BME280;25559;44.738;20.980;2022-09-30T14:43:57;100422.75;;;26.62;nan
39887;BME280;25559;44.738;20.980;2022-09-30T14:46:36;100405.41;;;26.57;nan
39887;BME280;25559;44.738;20.980;2022-09-30T14:49:10;100400.63;;;26.51;nan
39887;BME280;25559;44.738;20.980;2022-09-30T14:51:43;100407.75;;;26.51;nan
39887;BME280;25559;44.738;20.980;2022-09-30T14:54:23;100411.78;;;26.45;nan
39887;BME280;25559;44.738;20.980;2022-09-30T14:59:33;100404.00;;;26.32;nan
39887;BME280;25559;44.738;20.980;2022-09-30T15:07:00;100429.38;;;26.25;nan
39887;BME280;25559;44.738;20.980;2022-09-30T15:09:36;100421.66;;;26.22;nan
39887;BME280;25559;44.738;20.980;2022-09-30T15:12:05;100429.50;;;26.23;nan
39887;BME280;25559;44.738;20.980;2022-09-30T15:14:31;100429.75;;;26.20;nan
39887;BME280;25559;44.738;20.980;2022-09-30T15:16:59;100439.94;;;26.15;nan
39887;BME280;25559;44.738;20.980;2022-09-30T15:19:27;100471.09;;;26.13;nan
39887;BME280;25559;44.738;20.980;2022-09-30T15:21:56;100447.34;;;26.12;nan
39887;BME280;25559;44.738;20.980;2022-09-30T15:24:26;100461.56;;;26.11;nan
39887;BME280;25559;44.738;20.980;2022-09-30T15:26:57;100475.81;;;26.10;nan
39887;BME280;25559;44.738;20.980;2022-09-30T15:29:24;100507.16;;;26.16;nan
39887;BME280;25559;44.738;20.980;2022-09-30T15:31:59;100506.59;;;26.12;nan
39887;BME280;25559;44.738;20.980;2022-09-30T15:34:26;100543.66;;;26.02;nan
39887;BME280;25559;44.738;20.980;2022-09-30T15:37:00;100523.38;;;25.90;nan
39887;BME280;25559;44.738;20.980;2022-09-30T15:39:39;100496.75;;;25.80;nan
39887;BME280;25559;44.738;20.980;2022-09-30T15:47:27;100487.72;;;25.49;nan
39887;BME280;25559;44.738;20.980;2022-09-30T15:49:53;100488.47;;;25.40;nan
39887;BME280;25559;44.738;20.980;2022-09-30T15:54:44;100479.78;;;25.38;nan
39887;BME280;25559;44.738;20.980;2022-09-30T15:57:44;100486.41;;;25.32;nan
39887;BME280;25559;44.738;20.980;2022-09-30T16:03:28;100498.31;;;25.15;nan
39887;BME280;25559;44.738;20.980;2022-09-30T16:06:11;100490.72;;;25.10;nan
39887;BME280;25559;44.738;20.980;2022-09-30T16:08:48;100491.09;;;25.06;nan
39887;BME280;25559;44.738;20.980;2022-09-30T16:11:27;100485.16;;;25.02;nan
39887;BME280;25559;44.738;20.980;2022-09-30T16:13:54;100496.22;;;24.96;nan
39887;BME280;25559;44.738;20.980;2022-09-30T16:16:24;100488.63;;;24.91;nan
39887;BME280;25559;44.738;20.980;2022-09-30T16:18:52;100496.13;;;24.86;nan
39887;BME280;25559;44.738;20.980;2022-09-30T16:26:57;100501.00;;;24.68;nan
39887;BME280;25559;44.738;20.980;2022-09-30T16:29:25;100498.59;;;24.65;nan
39887;BME280;25559;44.738;20.980;2022-09-30T16:31:54;100510.25;;;24.62;nan
39887;BME280;25559;44.738;20.980;2022-09-30T16:34:25;100513.34;;;24.56;nan
39887;BME280;25559;44.738;20.980;2022-09-30T16:37:04;100511.25;;;24.48;nan
39887;BME280;25559;44.738;20.980;2022-09-30T16:39:35;100498.38;;;24.44;nan
39887;BME280;25559;44.738;20.980;2022-09-30T16:44:29;100527.34;;;24.34;nan
39887;BME280;25559;44.738;20.980;2022-09-30T16:47:03;100521.63;;;24.27;nan
39887;BME280;25559;44.738;20.980;2022-09-30T16:49:28;100530.78;;;24.23;nan
39887;BME280;25559;44.738;20.980;2022-09-30T16:51:54;100533.97;;;24.16;nan
39887;BME280;25559;44.738;20.980;2022-09-30T16:54:19;100533.69;;;24.07;nan
39887;BME280;25559;44.738;20.980;2022-09-30T16:56:45;100534.25;;;24.00;nan
39887;BME280;25559;44.738;20.980;2022-09-30T16:59:15;100537.34;;;23.93;nan
39887;BME280;25559;44.738;20.980;2022-09-30T17:01:41;100529.84;;;23.87;nan
39887;BME280;25559;44.738;20.980;2022-09-30T17:06:33;100529.84;;;23.74;nan
39887;BME280;25559;44.738;20.980;2022-09-30T17:09:00;100533.78;;;23.69;nan
39887;BME280;25559;44.738;20.980;2022-09-30T17:11:28;100527.34;;;23.60;nan
39887;BME280;25559;44.738;20.980;2022-09-30T17:14:02;100542.66;;;23.55;nan
39887;BME280;25559;44.738;20.980;2022-09-30T17:16:28;100551.25;;;23.46;nan
39887;BME280;25559;44.738;20.980;2022-09-30T17:18:54;100542.41;;;23.34;nan
39887;BME280;25559;44.738;20.980;2022-09-30T17:23:46;100542.16;;;23.24;nan
39887;BME280;25559;44.738;20.980;2022-09-30T17:26:12;100545.13;;;23.19;nan
39887;BME280;25559;44.738;20.980;2022-09-30T17:28:37;100551.69;;;23.14;nan
39887;BME280;25559;44.738;20.980;2022-09-30T17:31:03;100549.34;;;23.09;nan
39887;BME280;25559;44.738;20.980;2022-09-30T17:36:00;100541.28;;;22.98;nan